Time;durP1;ratioP1;P1;durP2;ratioP2;P2;SDS_P1;SDS_P2;PMS_P1;PMS_P2;Temp;Humidity;BMP_temperature;BMP_pressure;BME280_temperature;BME280_humidity;BME280_pressure;Samples;Min_cycle;Max_cycle;Signal;HPM_P1;HPM_P2
2023/03/05 00:01:55;;;;;;;4.95;0.90;;;4.00;82.10;;;;;;5069838;28;20096;-74
2023/03/05 00:04:22;;;;;;;6.53;0.88;;;4.00;82.00;;;;;;5069370;28;20051;-74
2023/03/05 00:06:49;;;;;;;4.78;0.50;;;4.00;82.30;;;;;;5087596;28;20056;-73
2023/03/05 00:09:16;;;;;;;3.40;0.60;;;4.00;82.20;;;;;;5086518;28;20048;-74
2023/03/05 00:11:43;;;;;;;4.20;0.40;;;4.00;82.60;;;;;;5079837;28;20606;-74
2023/03/05 00:14:11;;;;;;;5.53;0.50;;;4.00;82.60;;;;;;5052123;28;20045;-74
2023/03/05 00:16:39;;;;;;;3.53;0.52;;;3.90;82.80;;;;;;5110872;27;20501;-74
2023/03/05 00:19:07;;;;;;;4.40;0.70;;;3.90;82.70;;;;;;5072852;28;20071;-74
2023/03/05 00:21:36;;;;;;;4.90;0.60;;;3.90;83.00;;;;;;5079766;28;20139;-74
2023/03/05 00:24:05;;;;;;;2.55;0.38;;;3.90;82.70;;;;;;5090948;28;20059;-74
2023/03/05 00:26:34;;;;;;;4.43;0.65;;;3.90;82.90;;;;;;5086530;28;20498;-74
2023/03/05 00:29:01;;;;;;;3.80;0.73;;;3.90;82.90;;;;;;5102721;27;20459;-74
2023/03/05 00:31:32;;;;;;;2.90;0.30;;;3.90;82.70;;;;;;5077103;28;20081;-74
2023/03/05 00:34:03;;;;;;;5.37;0.60;;;3.90;82.90;;;;;;5058180;28;20052;-74
2023/03/05 00:36:30;;;;;;;6.32;0.52;;;3.90;83.00;;;;;;5071490;28;20135;-74
2023/03/05 00:38:57;;;;;;;4.07;0.40;;;3.90;82.90;;;;;;5051952;28;20500;-74
2023/03/05 00:41:25;;;;;;;2.58;0.30;;;3.90;83.00;;;;;;5067764;28;20110;-74
2023/03/05 00:43:52;;;;;;;4.25;0.43;;;4.00;83.00;;;;;;5085810;28;20049;-74
2023/03/05 00:46:19;;;;;;;4.43;0.50;;;4.00;82.90;;;;;;5080363;28;20180;-74
2023/03/05 00:48:46;;;;;;;1.67;0.20;;;4.00;82.70;;;;;;5051970;28;20127;-74
2023/03/05 00:51:14;;;;;;;4.20;0.68;;;4.00;83.00;;;;;;5104624;27;20085;-74
2023/03/05 00:53:41;;;;;;;3.00;0.40;;;4.00;82.90;;;;;;5068382;28;20045;-74
2023/03/05 00:56:08;;;;;;;4.90;0.50;;;4.00;82.80;;;;;;5078835;28;20680;-74
2023/03/05 00:58:35;;;;;;;2.83;0.33;;;4.00;82.60;;;;;;5070293;28;20140;-74
2023/03/05 01:01:03;;;;;;;5.30;0.60;;;4.00;82.50;;;;;;5083507;28;20060;-74
2023/03/05 01:03:30;;;;;;;4.85;0.70;;;4.00;82.40;;;;;;5070140;28;20181;-74
2023/03/05 01:05:58;;;;;;;5.32;0.73;;;4.00;82.40;;;;;;5076116;28;20124;-74
2023/03/05 01:08:27;;;;;;;6.88;1.00;;;4.00;82.30;;;;;;5069134;28;20052;-74
2023/03/05 01:10:54;;;;;;;3.60;0.40;;;4.00;82.30;;;;;;5100109;27;20106;-73
2023/03/05 01:13:21;;;;;;;5.05;0.50;;;4.00;82.40;;;;;;5082195;28;20048;-73
2023/03/05 01:15:49;;;;;;;8.40;0.80;;;4.00;82.40;;;;;;5084448;28;20159;-74
2023/03/05 01:18:17;;;;;;;3.50;0.40;;;4.00;82.40;;;;;;5086794;28;20670;-73
2023/03/05 01:20:44;;;;;;;8.07;0.63;;;4.00;82.60;;;;;;5085612;28;20403;-74
2023/03/05 01:23:11;;;;;;;4.43;0.50;;;4.00;82.30;;;;;;5076638;28;20073;-74
2023/03/05 01:25:40;;;;;;;3.70;0.40;;;3.90;82.30;;;;;;5070473;28;20673;-74
2023/03/05 01:28:08;;;;;;;2.95;0.43;;;4.00;82.50;;;;;;5059085;28;20049;-74
2023/03/05 01:30:35;;;;;;;3.13;0.55;;;3.90;82.90;;;;;;5077466;28;20159;-74
2023/03/05 01:33:02;;;;;;;4.15;0.80;;;3.90;82.80;;;;;;5069825;28;20053;-74
2023/03/05 01:35:29;;;;;;;4.20;0.60;;;4.00;83.10;;;;;;5063216;28;21014;-73
2023/03/05 01:37:57;;;;;;;7.47;1.25;;;3.90;83.00;;;;;;5067341;28;20499;-74
2023/03/05 01:40:26;;;;;;;7.32;1.05;;;3.90;83.10;;;;;;5058678;28;20045;-74
2023/03/05 01:42:59;;;;;;;4.30;0.57;;;3.90;83.00;;;;;;5103885;27;20100;-74
2023/03/05 01:45:26;;;;;;;4.18;0.80;;;3.90;83.20;;;;;;5080325;28;20055;-74
2023/03/05 01:47:54;;;;;;;5.97;0.93;;;3.90;83.10;;;;;;5071130;28;20143;-73
2023/03/05 01:50:24;;;;;;;5.05;0.65;;;3.90;83.10;;;;;;5079465;28;20582;-74
2023/03/05 01:52:55;;;;;;;4.45;1.27;;;3.80;83.20;;;;;;5068579;28;20694;-73
2023/03/05 01:55:25;;;;;;;6.75;0.90;;;3.80;83.20;;;;;;5058908;28;20160;-74
2023/03/05 01:57:55;;;;;;;5.85;1.05;;;3.70;83.10;;;;;;5050754;28;20069;-74
2023/03/05 02:00:27;;;;;;;4.93;1.17;;;3.70;83.00;;;;;;5103265;27;20738;-73
2023/03/05 02:02:55;;;;;;;4.75;0.82;;;3.70;83.10;;;;;;5067371;28;20539;-74
2023/03/05 02:05:26;;;;;;;4.25;0.80;;;3.70;83.00;;;;;;5075387;28;20049;-73
2023/03/05 02:07:54;;;;;;;5.90;1.00;;;3.70;83.00;;;;;;5050397;28;20103;-73
2023/03/05 02:10:25;;;;;;;3.72;0.50;;;3.70;82.90;;;;;;5080727;28;20605;-74
2023/03/05 02:12:54;;;;;;;5.43;0.60;;;3.70;82.90;;;;;;5067088;28;20565;-73
2023/03/05 02:15:23;;;;;;;7.43;0.73;;;3.70;83.00;;;;;;5058781;28;20422;-73
2023/03/05 02:17:50;;;;;;;4.60;0.80;;;3.70;83.00;;;;;;5054881;28;20509;-74
2023/03/05 02:20:21;;;;;;;3.85;0.68;;;3.70;83.10;;;;;;5086747;28;20056;-74
2023/03/05 02:22:49;;;;;;;5.05;1.00;;;3.70;83.20;;;;;;5075792;28;20068;-74
2023/03/05 02:25:18;;;;;;;7.30;1.23;;;3.70;83.00;;;;;;5080976;28;20044;-74
2023/03/05 02:27:52;;;;;;;4.70;0.90;;;3.70;83.00;;;;;;5085179;28;20056;-74
2023/03/05 02:30:20;;;;;;;7.40;0.93;;;3.70;82.90;;;;;;5065331;28;20146;-74
2023/03/05 02:32:47;;;;;;;7.25;1.23;;;3.70;82.80;;;;;;5074669;28;20073;-74
2023/03/05 02:35:14;;;;;;;3.42;0.68;;;3.60;82.90;;;;;;5052508;28;20087;-74
2023/03/05 02:37:42;;;;;;;4.77;0.67;;;3.60;82.80;;;;;;5068281;28;20048;-73
2023/03/05 02:40:13;;;;;;;3.75;0.80;;;3.60;82.80;;;;;;5051532;28;20045;-74
2023/03/05 02:42:42;;;;;;;5.80;0.88;;;3.60;83.10;;;;;;5061146;28;20033;-73
2023/03/05 02:45:11;;;;;;;2.38;0.30;;;3.50;83.30;;;;;;5067263;28;20137;-74
2023/03/05 02:47:39;;;;;;;6.45;1.00;;;3.50;83.20;;;;;;5078929;28;20511;-73
2023/03/05 02:50:09;;;;;;;5.30;0.80;;;3.50;83.30;;;;;;5066670;28;20142;-74
2023/03/05 02:52:37;;;;;;;5.28;0.80;;;3.50;83.20;;;;;;5074172;28;20048;-74
2023/03/05 02:55:08;;;;;;;5.15;0.88;;;3.50;83.50;;;;;;5056520;28;20164;-73
2023/03/05 02:57:36;;;;;;;4.95;0.90;;;3.50;83.20;;;;;;5076954;28;20368;-73
2023/03/05 03:00:04;;;;;;;5.38;0.68;;;3.40;83.20;;;;;;5066353;28;20180;-73
2023/03/05 03:02:32;;;;;;;4.67;0.80;;;3.50;83.20;;;;;;5060735;28;20048;-73
2023/03/05 03:04:59;;;;;;;3.78;0.52;;;3.40;83.30;;;;;;5070884;28;20081;-74
2023/03/05 03:07:26;;;;;;;4.75;0.60;;;3.40;83.30;;;;;;5076101;28;20594;-74
2023/03/05 03:09:53;;;;;;;3.08;0.28;;;3.40;83.30;;;;;;5071726;28;20049;-74
2023/03/05 03:12:20;;;;;;;6.15;0.90;;;3.40;83.40;;;;;;5087510;28;20100;-73
2023/03/05 03:14:48;;;;;;;5.50;0.93;;;3.30;83.50;;;;;;5071261;28;20045;-73
2023/03/05 03:17:17;;;;;;;5.03;0.60;;;3.30;83.50;;;;;;5077908;28;20048;-74
2023/03/05 03:19:45;;;;;;;4.47;0.47;;;3.40;83.60;;;;;;5084204;28;20171;-73
2023/03/05 03:22:14;;;;;;;3.30;0.50;;;3.50;83.80;;;;;;5080678;28;20732;-73
2023/03/05 03:24:43;;;;;;;2.58;0.38;;;3.40;83.70;;;;;;5066731;28;20063;-73
2023/03/05 03:27:10;;;;;;;3.40;0.40;;;3.40;83.90;;;;;;5070765;28;20183;-73
2023/03/05 03:29:37;;;;;;;6.88;0.85;;;3.40;84.00;;;;;;5067216;28;20767;-74
2023/03/05 03:32:07;;;;;;;2.30;0.35;;;3.30;83.90;;;;;;5073521;28;20059;-73
2023/03/05 03:34:34;;;;;;;2.30;0.20;;;3.30;84.00;;;;;;5069089;28;20056;-74
2023/03/05 03:37:01;;;;;;;5.60;0.40;;;3.30;84.20;;;;;;5076504;28;20080;-74
2023/03/05 03:39:28;;;;;;;4.50;0.40;;;3.30;84.80;;;;;;5072966;28;20073;-74
2023/03/05 03:41:55;;;;;;;2.92;0.20;;;3.30;84.50;;;;;;5074134;28;20660;-73
2023/03/05 03:44:22;;;;;;;1.35;0.30;;;3.30;84.30;;;;;;5071372;28;20057;-74
2023/03/05 03:46:50;;;;;;;4.47;0.40;;;3.30;84.60;;;;;;5058311;28;20153;-73
2023/03/05 03:49:21;;;;;;;4.38;0.45;;;3.30;84.50;;;;;;5076622;28;20088;-73
2023/03/05 03:51:49;;;;;;;3.57;0.20;;;3.30;84.40;;;;;;5079279;28;20564;-73
2023/03/05 03:54:17;;;;;;;3.15;0.30;;;3.30;84.50;;;;;;5088707;28;20080;-73
2023/03/05 03:56:45;;;;;;;2.38;0.35;;;3.30;84.50;;;;;;5083224;28;20053;-74
2023/03/05 03:59:13;;;;;;;0.88;0.10;;;3.30;84.60;;;;;;5071489;28;20085;-74
2023/03/05 04:01:41;;;;;;;1.02;0.10;;;3.30;84.60;;;;;;5070989;28;20077;-74
2023/03/05 04:04:08;;;;;;;2.60;0.20;;;3.30;84.80;;;;;;5073879;28;20049;-74
2023/03/05 04:06:36;;;;;;;1.90;0.20;;;3.30;84.90;;;;;;5109528;27;20048;-73
2023/03/05 04:09:04;;;;;;;2.78;0.25;;;3.30;85.10;;;;;;5073455;28;20147;-73
2023/03/05 04:11:31;;;;;;;4.57;0.30;;;3.30;85.00;;;;;;5078167;28;20049;-73
2023/03/05 04:13:58;;;;;;;5.60;0.40;;;3.30;85.00;;;;;;5076153;28;20059;-73
2023/03/05 04:16:25;;;;;;;0.97;0.10;;;3.30;84.90;;;;;;5078927;28;20459;-73
2023/03/05 04:18:52;;;;;;;2.50;0.30;;;3.30;84.90;;;;;;5075235;28;20053;-74
2023/03/05 04:21:19;;;;;;;1.27;0.10;;;3.30;84.70;;;;;;5090080;28;20127;-74
2023/03/05 04:23:47;;;;;;;2.35;0.20;;;3.30;84.50;;;;;;5085674;28;20754;-73
2023/03/05 04:26:14;;;;;;;1.23;0.20;;;3.30;84.50;;;;;;5078254;28;20122;-73
2023/03/05 04:28:41;;;;;;;2.57;0.20;;;3.30;84.50;;;;;;5086862;28;20701;-73
2023/03/05 04:31:08;;;;;;;2.65;0.20;;;3.30;84.50;;;;;;5083169;28;20654;-73
2023/03/05 04:33:35;;;;;;;5.95;0.40;;;3.30;84.60;;;;;;5085578;28;20139;-74
2023/03/05 04:36:02;;;;;;;3.15;0.20;;;3.20;84.70;;;;;;5072199;28;20053;-73
2023/03/05 04:38:29;;;;;;;1.80;0.22;;;3.30;84.80;;;;;;5082873;28;20161;-73
2023/03/05 04:40:57;;;;;;;3.67;0.30;;;3.20;84.80;;;;;;5074589;28;20049;-73
2023/03/05 04:43:24;;;;;;;2.53;0.25;;;3.20;84.80;;;;;;5074226;28;20136;-73
2023/03/05 04:45:51;;;;;;;1.50;0.20;;;3.10;84.80;;;;;;5076143;28;20048;-74
2023/03/05 04:48:18;;;;;;;2.15;0.20;;;3.20;85.10;;;;;;5077081;28;20781;-73
2023/03/05 04:50:45;;;;;;;5.65;0.50;;;3.20;85.10;;;;;;5074792;28;20555;-73
2023/03/05 04:53:12;;;;;;;1.73;0.20;;;3.20;85.30;;;;;;5071571;28;20044;-73
2023/03/05 04:55:39;;;;;;;4.35;0.43;;;3.20;85.30;;;;;;5086259;28;20052;-73
2023/03/05 04:58:07;;;;;;;3.20;0.30;;;3.20;85.30;;;;;;5085544;28;20087;-74
2023/03/05 05:00:34;;;;;;;2.45;0.20;;;3.20;85.50;;;;;;5074199;28;20238;-74
2023/03/05 05:03:01;;;;;;;2.05;0.30;;;3.20;85.30;;;;;;5088144;28;20139;-74
2023/03/05 05:05:29;;;;;;;3.07;0.33;;;3.20;85.40;;;;;;5082582;28;20055;-73
2023/03/05 05:07:56;;;;;;;3.75;0.20;;;3.20;85.40;;;;;;5075091;28;20049;-73
2023/03/05 05:10:24;;;;;;;2.83;0.30;;;3.20;85.50;;;;;;5071969;28;20073;-74
2023/03/05 05:12:51;;;;;;;3.03;0.30;;;3.20;85.50;;;;;;5075964;28;20064;-73
2023/03/05 05:15:20;;;;;;;3.53;0.30;;;3.20;85.50;;;;;;5059437;28;20040;-74
2023/03/05 05:17:48;;;;;;;3.43;0.33;;;3.20;85.50;;;;;;5086752;28;20048;-73
2023/03/05 05:20:16;;;;;;;2.28;0.45;;;3.20;85.50;;;;;;5086300;28;20135;-73
2023/03/05 05:22:43;;;;;;;2.90;0.20;;;3.20;85.50;;;;;;5079625;28;20072;-73
2023/03/05 05:25:10;;;;;;;3.22;0.30;;;3.20;85.70;;;;;;5071746;28;20424;-73
2023/03/05 05:27:38;;;;;;;3.58;0.32;;;3.20;85.60;;;;;;5073523;28;20060;-74
2023/03/05 05:30:07;;;;;;;2.67;0.20;;;3.20;86.00;;;;;;5074241;28;20049;-74
2023/03/05 05:32:35;;;;;;;1.83;0.10;;;3.20;85.90;;;;;;5080994;28;20060;-74
2023/03/05 05:35:03;;;;;;;3.83;0.30;;;3.20;85.90;;;;;;5069868;28;20065;-74
2023/03/05 05:37:30;;;;;;;1.50;0.20;;;3.10;85.80;;;;;;5087205;28;20087;-73
2023/03/05 05:39:57;;;;;;;1.98;0.20;;;3.20;85.70;;;;;;5068470;28;20037;-74
2023/03/05 05:42:25;;;;;;;1.13;0.50;;;3.20;85.60;;;;;;5060391;28;20045;-74
2023/03/05 05:44:52;;;;;;;3.13;0.20;;;3.10;85.60;;;;;;5067280;28;20053;-73
2023/03/05 05:47:19;;;;;;;2.45;0.17;;;3.10;85.60;;;;;;5070028;28;20061;-74
2023/03/05 05:49:48;;;;;;;2.85;0.30;;;3.10;85.40;;;;;;5068755;28;20049;-74
2023/03/05 05:52:14;;;;;;;2.88;0.30;;;3.10;85.50;;;;;;5077916;28;20136;-73
2023/03/05 05:54:41;;;;;;;1.47;0.10;;;3.10;85.30;;;;;;5067346;28;20515;-73
2023/03/05 05:57:08;;;;;;;2.97;0.28;;;3.10;85.20;;;;;;5084562;28;20055;-74
2023/03/05 05:59:36;;;;;;;1.10;0.20;;;3.10;85.10;;;;;;5101393;27;20084;-73
2023/03/05 06:02:03;;;;;;;2.55;0.30;;;3.10;85.20;;;;;;5087266;28;20072;-73
2023/03/05 06:04:30;;;;;;;2.50;0.25;;;3.10;85.10;;;;;;5072708;28;20055;-73
2023/03/05 06:06:58;;;;;;;3.97;0.40;;;3.10;85.10;;;;;;5076574;28;20215;-73
2023/03/05 06:09:25;;;;;;;2.40;0.30;;;3.10;85.30;;;;;;5068846;28;20057;-74
2023/03/05 06:11:53;;;;;;;2.65;0.35;;;3.10;85.30;;;;;;5068926;28;20629;-73
2023/03/05 06:14:20;;;;;;;2.75;0.40;;;3.10;85.40;;;;;;5082163;28;20145;-74
2023/03/05 06:16:47;;;;;;;2.53;0.20;;;3.10;85.40;;;;;;5067772;28;20140;-73
2023/03/05 06:19:15;;;;;;;1.83;0.10;;;3.10;85.60;;;;;;5074876;28;20073;-73
2023/03/05 06:21:42;;;;;;;2.58;0.20;;;3.10;85.50;;;;;;5070648;28;20085;-73
2023/03/05 06:24:12;;;;;;;2.10;0.30;;;3.10;85.70;;;;;;5086865;28;20048;-74
2023/03/05 06:26:39;;;;;;;2.47;0.40;;;3.10;85.60;;;;;;5069480;28;20049;-73
2023/03/05 06:29:06;;;;;;;2.15;0.10;;;3.10;85.50;;;;;;5082445;28;20048;-73
2023/03/05 06:31:33;;;;;;;4.20;0.50;;;3.10;85.50;;;;;;5084987;28;20131;-74
2023/03/05 06:34:01;;;;;;;2.75;0.30;;;3.10;85.30;;;;;;5075001;28;20508;-74
2023/03/05 06:36:28;;;;;;;4.28;0.40;;;3.10;85.60;;;;;;5058122;28;20053;-74
2023/03/05 06:38:56;;;;;;;2.42;0.20;;;3.10;85.70;;;;;;5067340;28;20581;-73
2023/03/05 06:41:26;;;;;;;3.45;0.38;;;3.10;85.70;;;;;;5087551;28;20044;-73
2023/03/05 06:43:54;;;;;;;2.30;0.30;;;3.10;85.60;;;;;;5066286;28;20056;-74
2023/03/05 06:46:22;;;;;;;3.50;0.40;;;3.10;85.40;;;;;;5083558;28;20064;-73
2023/03/05 06:48:50;;;;;;;2.70;0.45;;;3.20;85.40;;;;;;5073194;28;20041;-73
2023/03/05 06:51:19;;;;;;;3.45;0.30;;;3.10;85.30;;;;;;5086017;28;20048;-73
2023/03/05 06:53:47;;;;;;;2.70;0.20;;;3.10;85.30;;;;;;5085605;28;20614;-73
2023/03/05 06:56:15;;;;;;;5.83;0.50;;;3.10;85.30;;;;;;5085678;28;20122;-73
2023/03/05 06:58:45;;;;;;;2.67;0.40;;;3.10;85.30;;;;;;5083307;28;20053;-73
2023/03/05 07:01:13;;;;;;;2.15;0.30;;;3.10;85.10;;;;;;5078366;28;20045;-73
2023/03/05 07:03:40;;;;;;;4.55;0.55;;;3.10;85.00;;;;;;5070094;28;20363;-73
2023/03/05 07:06:10;;;;;;;4.38;0.70;;;3.10;84.80;;;;;;5086336;28;20048;-73
2023/03/05 07:08:37;;;;;;;1.33;0.20;;;3.10;84.70;;;;;;5083381;28;20049;-74
2023/03/05 07:11:10;;;;;;;1.63;0.17;;;3.10;84.80;;;;;;5079236;28;20049;-73
2023/03/05 07:13:37;;;;;;;2.90;0.40;;;3.10;85.00;;;;;;5066690;28;20084;-74
2023/03/05 07:16:08;;;;;;;4.05;0.65;;;3.10;84.90;;;;;;5069665;28;20044;-73
2023/03/05 07:18:35;;;;;;;3.00;0.30;;;3.10;84.90;;;;;;5065962;28;20046;-73
2023/03/05 07:21:03;;;;;;;5.77;0.60;;;3.10;85.10;;;;;;5066786;28;20380;-73
2023/03/05 07:23:30;;;;;;;4.95;0.65;;;3.00;85.10;;;;;;5090944;28;20160;-73
2023/03/05 07:26:00;;;;;;;2.83;0.60;;;3.00;85.20;;;;;;5088325;28;20049;-73
2023/03/05 07:28:27;;;;;;;2.67;0.22;;;3.10;85.20;;;;;;5071668;28;20049;-73
2023/03/05 07:30:58;;;;;;;3.83;0.43;;;3.10;85.40;;;;;;5077820;28;20053;-74
2023/03/05 07:33:27;;;;;;;4.67;0.60;;;3.10;85.50;;;;;;5080478;28;20053;-73
2023/03/05 07:35:55;;;;;;;5.43;0.43;;;3.10;85.60;;;;;;5072310;28;20122;-73
2023/03/05 07:38:22;;;;;;;4.10;0.75;;;3.10;85.90;;;;;;5085061;28;20060;-74
2023/03/05 07:40:50;;;;;;;6.63;0.70;;;3.10;85.80;;;;;;5083369;28;20569;-74
2023/03/05 07:43:17;;;;;;;4.68;0.60;;;3.10;86.00;;;;;;5083242;28;20159;-74
2023/03/05 07:45:46;;;;;;;4.47;0.70;;;3.10;86.00;;;;;;5084864;28;20568;-73
2023/03/05 07:48:14;;;;;;;4.25;0.50;;;3.10;86.20;;;;;;5113764;27;20511;-73
2023/03/05 07:50:43;;;;;;;4.82;0.40;;;3.10;86.10;;;;;;5084552;28;20052;-73
2023/03/05 07:53:10;;;;;;;4.85;0.70;;;3.10;86.20;;;;;;5088696;28;20132;-73
2023/03/05 07:55:42;;;;;;;3.72;0.40;;;3.10;86.10;;;;;;5084830;28;20167;-73
2023/03/05 07:58:09;;;;;;;6.27;0.90;;;3.20;86.30;;;;;;5083186;28;20156;-73
2023/03/05 08:00:36;;;;;;;3.25;0.20;;;3.20;86.10;;;;;;5085806;28;20127;-73
2023/03/05 08:03:03;;;;;;;4.97;0.75;;;3.20;86.30;;;;;;5068740;28;20612;-74
2023/03/05 08:05:30;;;;;;;3.33;0.40;;;3.20;86.20;;;;;;5088614;28;20306;-73
2023/03/05 08:07:59;;;;;;;5.80;1.25;;;3.20;86.30;;;;;;5087351;28;20064;-75
2023/03/05 08:10:26;;;;;;;5.77;0.70;;;3.30;86.30;;;;;;5111401;27;20408;-74
2023/03/05 08:12:53;;;;;;;1.52;0.30;;;3.30;86.30;;;;;;5081851;28;20136;-74
2023/03/05 08:15:20;;;;;;;3.28;0.60;;;3.30;86.50;;;;;;5107243;27;20049;-73
2023/03/05 08:17:48;;;;;;;5.53;0.57;;;3.30;86.50;;;;;;5089638;28;20140;-74
2023/03/05 08:20:15;;;;;;;1.50;0.30;;;3.30;86.50;;;;;;5082714;28;20494;-74
2023/03/05 08:22:42;;;;;;;3.03;0.27;;;3.30;86.40;;;;;;5076415;28;20049;-74
2023/03/05 08:25:11;;;;;;;5.10;0.50;;;3.30;86.20;;;;;;5075730;28;20614;-74
2023/03/05 08:27:40;;;;;;;7.18;0.77;;;3.40;86.10;;;;;;5068522;28;20541;-74
2023/03/05 08:30:08;;;;;;;4.80;0.50;;;3.40;86.10;;;;;;5084427;28;20052;-75
2023/03/05 08:32:35;;;;;;;2.40;0.28;;;3.40;85.90;;;;;;5077895;28;20120;-75
2023/03/05 08:35:03;;;;;;;4.90;0.60;;;3.50;85.90;;;;;;5080407;28;20519;-76
2023/03/05 08:37:30;;;;;;;4.45;0.60;;;3.50;85.90;;;;;;5079686;28;20052;-76
2023/03/05 08:39:57;;;;;;;3.72;0.50;;;3.50;85.80;;;;;;5082554;28;20134;-76
2023/03/05 08:42:26;;;;;;;4.95;0.35;;;3.60;85.90;;;;;;5088979;28;20133;-74
2023/03/05 08:44:52;;;;;;;1.25;0.20;;;3.60;85.70;;;;;;5080133;28;20127;-75
2023/03/05 08:47:20;;;;;;;2.50;0.20;;;3.60;85.50;;;;;;5119052;27;20060;-75
2023/03/05 08:49:47;;;;;;;4.40;0.30;;;3.70;85.40;;;;;;5073551;28;20148;-76
2023/03/05 08:52:14;;;;;;;2.35;0.10;;;3.80;85.30;;;;;;5104918;27;20063;-76
2023/03/05 08:54:41;;;;;;;4.97;0.40;;;3.90;85.30;;;;;;5071326;28;20475;-77
2023/03/05 08:57:08;;;;;;;2.90;0.30;;;3.90;85.30;;;;;;5069456;28;20107;-77
2023/03/05 08:59:36;;;;;;;3.20;0.20;;;3.90;85.40;;;;;;5105189;27;20052;-77
2023/03/05 09:02:04;;;;;;;1.70;0.30;;;4.00;84.90;;;;;;5074877;28;20332;-76
2023/03/05 09:04:30;;;;;;;2.60;0.30;;;4.00;83.70;;;;;;5072780;28;20542;-76
2023/03/05 09:06:58;;;;;;;3.88;0.43;;;4.10;83.60;;;;;;5068525;28;20582;-78
2023/03/05 09:09:25;;;;;;;2.55;0.20;;;4.10;83.70;;;;;;5103217;27;20126;-77
2023/03/05 09:11:52;;;;;;;5.13;0.40;;;4.20;83.70;;;;;;5101921;27;20526;-77
2023/03/05 09:14:19;;;;;;;4.32;0.50;;;4.30;83.10;;;;;;5070157;28;20131;-77
2023/03/05 09:16:48;;;;;;;2.55;0.22;;;4.30;82.50;;;;;;5074350;28;20048;-77
2023/03/05 09:19:14;;;;;;;3.22;0.15;;;4.40;82.60;;;;;;5081034;28;20485;-77
2023/03/05 09:21:41;;;;;;;2.33;0.22;;;4.40;82.10;;;;;;5077785;28;20575;-77
2023/03/05 09:24:09;;;;;;;6.00;0.30;;;4.40;81.80;;;;;;5077748;28;20143;-77
2023/03/05 09:26:36;;;;;;;4.38;0.30;;;4.50;81.70;;;;;;5069748;28;20045;-77
2023/03/05 09:29:03;;;;;;;3.65;0.35;;;4.50;81.30;;;;;;5074629;28;20048;-77
2023/03/05 09:31:30;;;;;;;3.10;0.20;;;4.50;81.70;;;;;;5074109;28;20049;-77
2023/03/05 09:33:58;;;;;;;3.20;0.20;;;4.70;81.20;;;;;;5075111;28;20111;-77
2023/03/05 09:36:28;;;;;;;3.30;0.30;;;4.70;79.90;;;;;;5073876;28;20234;-75
2023/03/05 09:38:55;;;;;;;6.53;0.45;;;4.70;80.60;;;;;;5075741;28;20055;-77
2023/03/05 09:41:35;;;;;;;2.28;0.30;;;4.70;79.90;;;;;;5079325;28;20047;-77
2023/03/05 09:44:12;;;;;;;2.17;0.22;;;4.80;80.20;;;;;;5075232;28;20617;-77
2023/03/05 09:46:50;;;;;;;2.92;0.40;;;4.90;80.10;;;;;;5083369;28;20140;-77
2023/03/05 09:49:28;;;;;;;2.73;0.20;;;5.00;79.50;;;;;;5074486;28;20101;-76
2023/03/05 09:52:01;;;;;;;2.75;0.35;;;5.00;79.30;;;;;;5094555;27;20141;-77
2023/03/05 09:54:36;;;;;;;3.25;0.30;;;5.00;79.00;;;;;;5074557;28;20060;-77
2023/03/05 09:57:05;;;;;;;4.32;0.30;;;5.10;78.50;;;;;;5079204;28;20187;-77
2023/03/05 09:59:38;;;;;;;2.85;0.50;;;5.10;77.00;;;;;;5079111;28;20136;-77
2023/03/05 10:02:15;;;;;;;3.30;0.20;;;5.10;77.00;;;;;;5073507;28;20048;-76
2023/03/05 10:04:48;;;;;;;4.10;0.20;;;5.20;76.90;;;;;;5078311;28;20695;-76
2023/03/05 10:07:19;;;;;;;5.32;0.20;;;5.30;76.60;;;;;;5081052;28;20084;-76
2023/03/05 10:09:51;;;;;;;3.05;0.25;;;5.30;76.40;;;;;;5059885;28;20566;-76
2023/03/05 10:12:26;;;;;;;1.02;0.10;;;5.30;76.50;;;;;;5083460;28;20131;-76
2023/03/05 10:14:56;;;;;;;2.90;0.17;;;5.30;76.20;;;;;;5070015;28;20529;-76
2023/03/05 10:18:04;;;;;;;3.20;0.32;;;5.30;75.20;;;;;;5089406;28;20049;-77
2023/03/05 10:20:56;;;;;;;4.20;0.38;;;5.40;74.60;;;;;;5081214;28;20106;-76
2023/03/05 10:23:46;;;;;;;3.47;0.30;;;5.50;73.80;;;;;;5083262;28;20166;-75
2023/03/05 10:26:35;;;;;;;6.70;0.50;;;5.50;72.60;;;;;;5069589;28;20122;-75
2023/03/05 10:29:13;;;;;;;2.53;0.40;;;5.50;73.50;;;;;;5084744;28;20155;-75
2023/03/05 10:31:53;;;;;;;4.40;0.22;;;5.60;71.20;;;;;;5078683;28;20485;-75
2023/03/05 10:34:47;;;;;;;1.50;0.30;;;5.60;72.20;;;;;;5074740;28;20059;-75
2023/03/05 10:37:31;;;;;;;3.17;0.10;;;5.60;72.60;;;;;;5070602;28;20162;-75
2023/03/05 10:40:08;;;;;;;3.15;0.20;;;5.70;72.50;;;;;;5114402;27;20043;-75
2023/03/05 10:42:45;;;;;;;2.80;0.20;;;5.80;71.90;;;;;;5084046;28;20052;-75
2023/03/05 10:45:18;;;;;;;5.80;0.20;;;5.80;72.50;;;;;;5070132;28;20136;-75
2023/03/05 10:47:50;;;;;;;2.05;0.20;;;5.80;71.90;;;;;;5076069;28;20494;-75
2023/03/05 10:50:20;;;;;;;3.17;0.30;;;5.90;72.20;;;;;;5067904;28;20104;-76
2023/03/05 10:52:52;;;;;;;5.53;0.50;;;5.90;71.40;;;;;;5080140;28;20049;-72
2023/03/05 10:55:22;;;;;;;2.97;0.23;;;6.00;71.10;;;;;;5069348;28;20562;-73
2023/03/05 10:57:50;;;;;;;2.72;0.40;;;6.00;71.00;;;;;;5081238;28;20064;-73
2023/03/05 11:00:20;;;;;;;3.33;0.38;;;6.00;71.90;;;;;;5084992;28;20130;-73
2023/03/05 11:02:57;;;;;;;2.08;0.25;;;6.00;72.40;;;;;;5071674;28;20049;-72
2023/03/05 11:05:41;;;;;;;4.25;0.40;;;6.10;74.00;;;;;;5058242;28;20049;-73
2023/03/05 11:08:28;;;;;;;3.03;0.20;;;6.00;74.40;;;;;;5069428;28;20542;-73
2023/03/05 11:11:14;;;;;;;2.50;0.30;;;6.00;75.40;;;;;;5083995;28;20060;-73
2023/03/05 11:13:52;;;;;;;0.47;0.10;;;6.00;75.30;;;;;;5066892;28;20053;-73
2023/03/05 11:16:21;;;;;;;1.00;0.10;;;5.90;75.30;;;;;;5085854;28;20049;-73
2023/03/05 11:18:49;;;;;;;1.92;0.20;;;5.90;75.50;;;;;;5083429;28;20503;-73
2023/03/05 11:21:26;;;;;;;3.00;0.50;;;5.90;75.40;;;;;;5066929;28;20045;-72
2023/03/05 11:24:13;;;;;;;2.25;0.22;;;5.80;75.10;;;;;;5076259;28;20048;-73
2023/03/05 11:26:48;;;;;;;2.72;0.50;;;5.70;75.40;;;;;;5073467;28;20059;-73
2023/03/05 11:29:21;;;;;;;3.33;0.30;;;5.60;76.00;;;;;;5083610;28;20061;-73
2023/03/05 11:31:48;;;;;;;3.50;0.55;;;5.50;76.30;;;;;;5066867;28;20148;-73
2023/03/05 11:34:27;;;;;;;3.60;0.50;;;5.50;76.70;;;;;;5068311;28;20135;-73
2023/03/05 11:37:03;;;;;;;2.25;0.38;;;5.50;76.70;;;;;;5081476;28;20489;-73
2023/03/05 11:39:34;;;;;;;3.72;0.50;;;5.40;77.00;;;;;;5067906;28;20530;-73
2023/03/05 11:42:05;;;;;;;2.67;0.30;;;5.40;77.00;;;;;;5066548;28;20462;-72
2023/03/05 11:44:38;;;;;;;2.53;0.25;;;5.40;77.00;;;;;;5070774;28;20053;-73
2023/03/05 11:47:18;;;;;;;5.30;0.53;;;5.40;77.00;;;;;;5099265;27;20052;-73
2023/03/05 11:49:47;;;;;;;4.70;0.47;;;5.30;76.90;;;;;;5101305;27;20483;-72
2023/03/05 11:52:20;;;;;;;2.55;0.20;;;5.30;77.00;;;;;;5086408;28;20048;-73
2023/03/05 11:54:56;;;;;;;3.95;0.40;;;5.30;77.20;;;;;;5064088;28;20092;-73
2023/03/05 11:57:25;;;;;;;0.52;0.05;;;5.30;77.70;;;;;;5066486;28;20049;-73
2023/03/05 11:59:54;;;;;;;3.47;0.30;;;5.50;77.80;;;;;;5057967;28;20563;-73
2023/03/05 12:02:25;;;;;;;4.60;0.50;;;5.50;77.20;;;;;;5069533;28;20168;-73
2023/03/05 12:04:52;;;;;;;2.03;0.30;;;5.50;77.30;;;;;;5087261;28;20045;-73
2023/03/05 12:07:24;;;;;;;3.58;0.40;;;5.60;77.00;;;;;;5074791;28;20055;-73
2023/03/05 12:09:54;;;;;;;3.42;0.40;;;5.70;77.10;;;;;;5087339;28;20041;-73
2023/03/05 12:12:39;;;;;;;4.87;0.40;;;5.70;77.40;;;;;;5070071;28;20055;-73
2023/03/05 12:15:33;;;;;;;4.85;0.43;;;5.80;76.30;;;;;;5069331;28;20144;-73
2023/03/05 12:18:11;;;;;;;5.30;0.40;;;5.90;76.10;;;;;;5069853;28;20618;-73
2023/03/05 12:20:45;;;;;;;2.88;0.30;;;6.00;75.30;;;;;;5080744;28;20071;-73
2023/03/05 12:23:14;;;;;;;2.60;0.45;;;6.00;75.20;;;;;;5083186;28;20503;-73
2023/03/05 12:25:54;;;;;;;3.67;0.30;;;6.10;72.90;;;;;;5071345;28;20072;-73
2023/03/05 12:28:55;;;;;;;3.92;0.30;;;6.10;73.80;;;;;;5088060;28;20086;-73
2023/03/05 12:31:37;;;;;;;8.43;0.70;;;6.20;73.30;;;;;;5069437;28;20455;-73
2023/03/05 12:34:47;;;;;;;2.95;0.30;;;6.30;72.70;;;;;;5075896;28;20053;-73
2023/03/05 12:37:34;;;;;;;2.55;0.20;;;6.30;73.00;;;;;;5069165;28;20060;-73
2023/03/05 12:40:20;;;;;;;1.83;0.10;;;6.40;73.20;;;;;;5087841;28;20074;-73
2023/03/05 12:42:58;;;;;;;2.25;0.20;;;6.50;73.40;;;;;;5070773;28;20192;-73
2023/03/05 12:45:39;;;;;;;3.45;0.50;;;6.50;73.20;;;;;;5087665;28;20052;-72
2023/03/05 12:48:41;;;;;;;2.53;0.30;;;6.60;72.60;;;;;;5087386;28;21061;-73
2023/03/05 12:51:13;;;;;;;2.35;0.40;;;6.60;73.00;;;;;;5068846;28;20055;-73
2023/03/05 12:53:40;;;;;;;1.77;0.20;;;6.50;72.50;;;;;;5076607;28;20045;-73
2023/03/05 12:56:19;;;;;;;4.38;0.52;;;6.50;73.10;;;;;;5070497;28;20053;-73
2023/03/05 12:58:49;;;;;;;2.38;0.10;;;6.50;73.10;;;;;;5086402;27;20057;-73
2023/03/05 13:01:31;;;;;;;3.08;0.20;;;6.50;73.80;;;;;;5069106;28;20045;-72
2023/03/05 13:04:02;;;;;;;1.08;0.10;;;6.50;72.70;;;;;;5085776;28;20149;-73
2023/03/05 13:06:32;;;;;;;2.80;0.47;;;6.40;72.30;;;;;;5083990;28;20041;-73
2023/03/05 13:09:02;;;;;;;1.75;0.40;;;6.30;72.90;;;;;;5068527;28;20064;-73
2023/03/05 13:11:33;;;;;;;3.60;0.40;;;6.30;72.90;;;;;;5068386;28;20045;-73
2023/03/05 13:14:02;;;;;;;3.65;0.80;;;6.30;72.40;;;;;;5081017;28;20049;-73